Flight Track Log - Related Links

Times and Time Zones

All times are in EST time to prevent confusion due to time zone crossing. See the GJS3627 flight status page for this flight to view local times or setup timezone preferences in your user account.

Time Position Orientation Groundspeed Altitude Reporting Facility
EST Latitude Longitude Course Direction KTS MPH feet Rate Location/Type
Sun 11:40:48 AM 42.0000 -87.9667 262° West 171 197 2,200  Level Chicago TRACON
Sun 11:41:48 AM 41.9833 -88.0333 251° West 227 261 4,200 2,368 Climbing Chicago TRACON
Sun 11:42:42 AM 41.9833 -88.1167 270° West 261 300 6,700 3,145 Climbing Chicago TRACON
Sun 11:43:00 AM 41.8238 -88.3543 246° West  Level Estimated
Sun 11:44:00 AM 41.7840 -88.4659 270° West  Level Estimated
Sun 11:44:13 AM 41.9419 -88.2683 250° West 272 313 11,800  Level Chicago Center
Sun 11:45:00 AM 41.7442 -88.5773 262° West  Level Estimated
Sun 11:45:15 AM 41.9156 -88.3675 250° West 288 331 13,600  Level Chicago Center
Sun 11:47:00 AM 41.8337 -88.5598 253° West  Level FlightAware Approximate
Sun 11:51:28 AM 41.7511 -89.1531 241° Southwest 374 430 24,800  Level Chicago Center
Sun 11:52:30 AM 41.7064 -89.2831 245° Southwest 388 447 26,400 1,548 Climbing Chicago Center
Sun 11:53:32 AM 41.6600 -89.4136 245° Southwest 390 449 28,000 1,276 Climbing Chicago Center
Sun 11:54:00 AM 41.6610 -89.3783 249° West  Level FlightAware Approximate
Sun 11:55:00 AM 41.6210 -89.4892 242° Southwest  Level FlightAware Approximate
Sun 11:55:24 AM 41.5625 -89.6756 244° Southwest 399 459 30,100  Level Kansas City Center
Sun 11:56:00 AM 41.5783 -89.5984 246° West  Level FlightAware Approximate
Sun 11:56:26 AM 41.5094 -89.8094 242° Southwest 407 468 31,100  Level Kansas City Center
Sun 11:57:00 AM 41.5408 -89.7109 246° West  Level FlightAware Approximate
Sun 11:57:28 AM 41.4536 -89.9439 241° Southwest 414 476 32,100  Level Kansas City Center
Sun 11:58:00 AM 41.4974 -89.8194 241° Southwest  Level FlightAware Approximate
Sun 11:58:30 AM 41.3981 -90.0778 241° Southwest 415 478 33,100  Level Kansas City Center
Sun 11:59:00 AM 41.4524 -89.9268 241° Southwest  Level FlightAware Approximate
Sun 11:59:32 AM 41.3311 -90.2350 240° Southwest 410 472 34,300  Level Kansas City Center
Sun 12:00:00 PM 41.4073 -90.0340 241° Southwest  Level FlightAware Approximate
Sun 12:00:34 PM 41.2758 -90.3667 241° Southwest 411 473 35,300  Level Kansas City Center
Sun 12:01:00 PM 41.3622 -90.1410 241° Southwest  Level FlightAware Approximate
Sun 12:01:36 PM 41.2222 -90.4947 241° Southwest 403 464 36,000  Level Kansas City Center
Sun 12:02:38 PM 41.1689 -90.6200 241° Southwest 395 455 36,000  Level Kansas City Center
Sun 12:03:40 PM 41.1167 -90.7439 241° Southwest 389 448 36,000  Level Kansas City Center
Sun 12:04:42 PM 41.0525 -90.8925 240° Southwest 389 448 36,000  Level Kansas City Center
Sun 12:05:44 PM 40.9992 -91.0189 241° Southwest 392 451 36,000  Level Kansas City Center
Sun 12:06:46 PM 40.9447 -91.1447 240° Southwest 395 455 36,000  Level Kansas City Center
Sun 12:07:48 PM 40.8867 -91.2814 241° Southwest 397 457 36,000  Level Kansas City Center
Sun 12:08:50 PM 40.8308 -91.4064 239° Southwest 397 457 36,000  Level Kansas City Center
Sun 12:09:52 PM 40.7753 -91.5303 239° Southwest 397 457 36,000 -48 Level Kansas City Center
Sun 12:10:55 PM 40.7067 -91.6453 232° Southwest 398 458 35,900 -528 Descending Kansas City Center
Sun 12:11:57 PM 40.6383 -91.7594 232° Southwest 399 459 34,900 -1,065 Descending Kansas City Center
Sun 12:12:59 PM 40.5569 -91.8944 232° Southwest 396 456 33,700 -1,065 Descending Kansas City Center
Sun 12:14:01 PM 40.4900 -92.0083 232° Southwest 395 455 32,700 -968 Descending Kansas City Center
Sun 12:15:03 PM 40.4275 -92.1294 236° Southwest 401 461 31,700 -968 Descending Kansas City Center
Sun 12:16:05 PM 40.3697 -92.2597 240° Southwest 410 472 30,700 -968 Descending Kansas City Center
Sun 12:17:07 PM 40.3081 -92.3969 240° Southwest 424 488 29,700 -1,065 Descending Kansas City Center
Sun 12:18:09 PM 40.2389 -92.5464 239° Southwest 429 494 28,500 -1,355 Descending Kansas City Center
Sun 12:19:11 PM 40.1844 -92.6728 241° Southwest 420 483 26,900 -1,694 Descending Kansas City Center
Sun 12:20:13 PM 40.1194 -92.8175 240° Southwest 416 479 25,000 -1,790 Descending Kansas City Center
Sun 12:21:15 PM 40.0567 -92.9578 240° Southwest 425 489 23,200 -1,694 Descending Kansas City Center
Sun 12:22:17 PM 39.9978 -93.0797 238° Southwest 407 468 21,500 -1,645 Descending Kansas City Center
Sun 12:23:19 PM 39.9428 -93.2003 239° Southwest 393 452 19,800 -1,597 Descending Kansas City Center
Sun 12:24:21 PM 39.8889 -93.3181 239° Southwest 385 443 18,200 -1,452 Descending Kansas City Center
Sun 12:25:23 PM 39.8367 -93.4319 239° Southwest 373 429 16,800 -1,548 Descending Kansas City Center
Sun 12:26:25 PM 39.7742 -93.5642 238° Southwest 363 418 15,000 -1,500 Descending Kansas City Center
Sun 12:27:27 PM 39.7222 -93.6756 239° Southwest 364 419 13,700 -1,210 Descending Kansas City Center
Sun 12:28:29 PM 39.6694 -93.7914 239° Southwest 338 389 12,500 -1,065 Descending Kansas City Center
Sun 12:29:31 PM 39.6247 -93.8875 239° Southwest 323 372 11,500 -1,113 Descending Kansas City Center
Sun 12:30:33 PM 39.5764 -94.0014 241° Southwest 322 371 10,200 -726 Descending Kansas City Center
Sun 12:31:35 PM 39.5542 -94.1147 256° West 336 387 10,000 -339 Descending Kansas City Center
Sun 12:32:37 PM 39.5331 -94.2086 254° West 283 326 9,500 -1,113 Descending Kansas City Center
Sun 12:33:39 PM 39.5100 -94.3072 253° West 256 295 7,700 -1,694 Descending Kansas City Center
Sun 12:34:41 PM 39.4914 -94.3889 254° West 248 285 6,000 -823 Descending Kansas City Center
Sun 12:35:43 PM 39.4700 -94.4825 254° West 245 282 6,000 -387 Level Kansas City Center
Sun 12:36:45 PM 39.4528 -94.5606 254° West 238 274 5,200 -1,210 Descending Kansas City Center
Sun 12:37:47 PM 39.4328 -94.6494 254° West 230 265 3,500 -1,306 Descending Kansas City Center
Sun 12:38:49 PM 39.4011 -94.6958 229° Southwest 185 213 2,500 -774 Descending Kansas City Center
Sun 12:39:51 PM 39.3653 -94.7083 195° South 121 139 1,900 -581 Descending Kansas City Center
Sun 12:40:53 PM 39.3333 -94.7167 191° South 120 138 1,300 -435 Descending Kansas City Center
Sun 12:41:55 PM 39.3058 -94.7253 194° South 114 131 1,000 -290 Descending Kansas City Center

Login

Don't have an account? Register now (free) for customized features, flight alerts, and more!